Albany, Ohio
Current Conditions -  °F | °C
As of 10:35 PM on Saturday 25 Oct 2014 (Local Time) from KUNI Reporting Station
Clear Clear  
Wind Chill: 58°   Ceiling: Unl
Heat Index: 58°   Visibility: 10mi
Dew Point: 53°   Wind: 5mph
Humidity: 84%   Direction: 250°WSW
Pressure: 29.88"   Gusts: NA
Location:  39.23°N, 82.2°W
Report Text: KUNI 260235Z AUTO 25004KT 10SM CLR 15/12 A2988 RMK AO2 T01460119
Loading
Personal Weather Stations






























Interactive Weather Map
Tropical Storm Tracking
New forecast layout! Learn more

10-Day Weather Forecast

Advertisements
Track Severe Weather on mobile